17 août 2022

Temps Code Temps Temp. Vue Base cloud Vent METAR/SPECI
05:30
I
16 °C 4,9 km - 040° 040° 2 kt METAR LFPT 170330Z AUTO 04002KT 4900 BR NSC 16/16 Q1009
05:00
I
16 °C 4,1 km - Var Var 1 kt METAR LFPT 170300Z AUTO VRB01KT 4100 BR NSC 16/16 Q1009
04:30
I
15 °C 1,7 km - Var Var 2 kt METAR LFPT 170230Z AUTO VRB02KT 1700 R05/1100U BR NSC 15/15 Q1009
04:00
L
15 °C 750 m - 100° 100° 3 kt METAR LFPT 170200Z AUTO 10003KT 1000 0750 R05/1100D BCFG NSC 15/15 Q1009
03:30
L
16 °C 750 m - Var 000° 0 kt METAR LFPT 170130Z AUTO 00000KT 0800 0750 R05/0900N FG NSC 16/16 Q1008
03:00
I
16 °C 3,2 km - 070° 070° 3 kt METAR LFPT 170100Z AUTO 07003KT 3200 BR NSC 16/16 Q1008
02:30
I
16 °C 1,8 km - Var 000° 0 kt METAR LFPT 170030Z AUTO 00000KT 1800 BR NSC 16/16 Q1008
02:00
I
16 °C 4,1 km - Var 000° 0 kt METAR LFPT 170000Z AUTO 00000KT 4100 BR NSC 16/16 Q1009
01:30
M
17 °C 7 km - 040° 040° 3 kt METAR LFPT 162330Z AUTO 04003KT 7000 NSC 17/16 Q1009
01:00
M
17 °C 6 km - 080° 080° 3 kt METAR LFPT 162300Z AUTO 08003KT 6000 NSC 17/16 Q1009
00:30
M
17 °C 7 km - 090° 090° 2 kt METAR LFPT 162230Z AUTO 09002KT 7000 NSC 17/16 Q1010
00:00
M
16 °C 6 km - Var 000° 0 kt METAR LFPT 162200Z AUTO 00000KT 6000 NSC 16/16 Q1009

16 août 2022

Temps Code Temps Temp. Vue Base cloud Vent METAR/SPECI
23:30
M
16 °C 6 km - Var 000° 0 kt METAR LFPT 162130Z AUTO 00000KT 6000 NSC 16/15 Q1009
23:00
M
16 °C 7 km - Var 000° 0 kt METAR LFPT 162100Z AUTO 00000KT 7000 NSC 16/16 Q1009
22:30
V
17 °C 10 km+ - Var 000° 0 kt METAR LFPT 162030Z AUTO 00000KT CAVOK 17/16 Q1009
22:00
V
17 °C 10 km+ - 140° 140° 2 kt METAR LFPT 162000Z AUTO 14002KT CAVOK 17/16 Q1009
21:30
V
17 °C 10 km+ - Var Var 3 kt METAR LFPT 161930Z AUTO VRB03KT CAVOK 17/16 Q1009
21:00
V
18 °C 10 km+ - 040° 040° 4 kt METAR LFPT 161900Z AUTO 04004KT CAVOK 18/16 Q1008
20:30
V
18 °C 10 km+ - Var Var 2 kt METAR LFPT 161830Z AUTO VRB02KT CAVOK 18/17 Q1008
20:00
V
18 °C 10 km+ - 130° 130° 5 kt METAR LFPT 161800Z AUTO 13005KT 090V150 9999 ///CB 18/17 Q1008
19:30
V
17 °C 10 km+ 4.400 ft 070° 070° 7 kt METAR LFPT 161730Z AUTO 07007KT 040V110 9999 -RA VCTS FEW011/// SCT030/// BKN044/// ///CB 17/16 Q1008
19:00
V
18 °C 10 km+ 4.500 ft 160° 160° 16 kt METAR LFPT 161700Z AUTO 16016KT 130V190 9999 -TSRA FEW037/// BKN045/// BKN140/// ///CB 18/15 Q1009
18:30
V
26 °C 10 km+ 4.800 ft Var Var 2 kt METAR LFPT 161630Z AUTO VRB02KT 9999 VCTS BKN048/// BKN054/// ///CB 26/16 Q1007
18:00
V
26 °C 10 km+ - 220° 220° 4 kt METAR LFPT 161600Z AUTO 22004KT 170V290 9999 SCT049/// SCT058/// ///CB 26/16 Q1007
17:30
V
26 °C 10 km+ - 200° 200° 6 kt METAR LFPT 161530Z AUTO 20006KT CAVOK 26/16 Q1008
17:00
V
26 °C 10 km+ - 170° 170° 5 kt METAR LFPT 161500Z AUTO 17005KT 100V220 9999 FEW044 SCT170 26/16 Q1008
16:30
V
26 °C 10 km+ - 110° 110° 4 kt METAR LFPT 161430Z AUTO 11004KT 060V190 CAVOK 26/16 Q1008
16:00
V
26 °C 10 km+ - 130° 130° 6 kt METAR LFPT 161400Z AUTO 13006KT 100V160 CAVOK 26/16 Q1008
15:30
V
25 °C 10 km+ 6.200 ft 160° 160° 4 kt METAR LFPT 161330Z AUTO 16004KT 110V200 9999 FEW042 BKN062 25/15 Q1008
15:00
V
25 °C 10 km+ - 210° 210° 8 kt METAR LFPT 161300Z AUTO 21008KT 190V250 9999 FEW044/// SCT054/// ///CB 25/16 Q1009
14:30
V
25 °C 10 km+ 4.900 ft 240° 240° 6 kt METAR LFPT 161230Z AUTO 24006KT 180V280 9999 SCT042/// BKN049/// ///CB 25/15 Q1009
14:00
V
25 °C 10 km+ 4.300 ft 220° 220° 6 kt METAR LFPT 161200Z AUTO 22006KT 180V270 9999 BKN043 25/15 Q1009
13:30
V
25 °C 10 km+ 4.200 ft 230° 230° 6 kt METAR LFPT 161130Z AUTO 23006KT 190V280 9999 BKN042 25/15 Q1009
13:00
V
25 °C 10 km+ - 240° 240° 7 kt METAR LFPT 161100Z AUTO 24007KT 150V280 9999 SCT038 SCT047 25/16 Q1008
12:30
V
25 °C 10 km+ 16.000 ft 210° 210° 9 kt METAR LFPT 161030Z AUTO 21009KT 180V260 9999 FEW039 SCT047 BKN160 25/16 Q1008
12:00
V
24 °C 10 km+ 4.600 ft 220° 220° 11 kt METAR LFPT 161000Z AUTO 22011KT 9999 FEW035 BKN046 BKN058 24/15 Q1008
11:30
V
24 °C 10 km+ - 190° 190° 8 kt METAR LFPT 160930Z AUTO 19008KT 150V230 9999 FEW035 24/16 Q1008
11:00
V
23 °C 10 km+ - 190° 190° 8 kt METAR LFPT 160900Z AUTO 19008KT CAVOK 23/16 Q1008
10:30
V
24 °C 10 km+ - 210° 210° 6 kt METAR LFPT 160830Z AUTO 21006KT 160V240 CAVOK 24/16 Q1008
10:00
V
22 °C 10 km+ - 190° 190° 4 kt METAR LFPT 160800Z AUTO 19004KT 150V210 CAVOK 22/16 Q1008
09:30
V
21 °C 10 km+ - 170° 170° 3 kt METAR LFPT 160730Z AUTO 17003KT 140V200 CAVOK 21/16 Q1008
09:00
V
20 °C 10 km+ - 150° 150° 3 kt METAR LFPT 160700Z AUTO 15003KT 120V180 CAVOK 20/17 Q1008
08:30
V
19 °C 10 km+ - Var 000° 0 kt METAR LFPT 160630Z AUTO 00000KT CAVOK 19/17 Q1008
08:00
M
17 °C 7 km - 070° 070° 2 kt METAR LFPT 160600Z AUTO 07002KT 7000 NSC 17/17 Q1008
07:30
V
17 °C 8 km - Var 000° 0 kt METAR LFPT 160530Z AUTO 00000KT 8000 NSC 17/16 Q1008
07:00
V
16 °C 8 km - 290° 290° 2 kt METAR LFPT 160500Z AUTO 29002KT 8000 NSC 16/16 Q1007
06:30
V
16 °C 8 km - Var 000° 0 kt METAR LFPT 160430Z AUTO 00000KT 8000 NSC 16/15 Q1007
06:00
V
17 °C 10 km+ - Var 000° 0 kt METAR LFPT 160400Z AUTO 00000KT CAVOK 17/16 Q1007
05:30
V
16 °C 9 km - 050° 050° 4 kt METAR LFPT 160330Z AUTO 05004KT 9000 NSC 16/15 Q1007
05:00
V
16 °C 9 km - 040° 040° 3 kt METAR LFPT 160300Z AUTO 04003KT 9000 NSC 16/15 Q1007
04:30
V
16 °C 9 km - 030° 030° 2 kt METAR LFPT 160230Z AUTO 03002KT 9000 NSC 16/15 Q1007
04:00
V
16 °C 10 km+ - Var 000° 0 kt METAR LFPT 160200Z AUTO 00000KT CAVOK 16/15 Q1008
03:30
V
17 °C 10 km+ - Var Var 1 kt METAR LFPT 160130Z AUTO VRB01KT CAVOK 17/16 Q1007
03:00
V
17 °C 10 km+ - Var 000° 0 kt METAR LFPT 160100Z AUTO 00000KT CAVOK 17/16 Q1007
02:30
V
17 °C 10 km+ - Var 000° 0 kt METAR LFPT 160030Z AUTO 00000KT CAVOK 17/15 Q1007
02:00
V
16 °C 9 km - 010° 010° 3 kt METAR LFPT 160000Z AUTO 01003KT 340V060 9000 NSC 16/15 Q1007
01:30
V
17 °C 10 km+ - Var Var 1 kt METAR LFPT 152330Z AUTO VRB01KT CAVOK 17/15 Q1007
01:00
V
18 °C 10 km+ - Var 000° 0 kt METAR LFPT 152300Z AUTO 00000KT CAVOK 18/16 Q1007
00:30
V
18 °C 10 km+ - 300° 300° 3 kt METAR LFPT 152230Z AUTO 30003KT CAVOK 18/16 Q1007
00:00
V
18 °C 10 km+ - Var Var 1 kt METAR LFPT 152200Z AUTO VRB01KT CAVOK 18/16 Q1007

15 août 2022

Temps Code Temps Temp. Vue Base cloud Vent METAR/SPECI
23:30
V
17 °C 10 km+ - Var 000° 0 kt METAR LFPT 152130Z AUTO 00000KT CAVOK 17/16 Q1007
23:00
V
19 °C 10 km+ - 280° 280° 3 kt METAR LFPT 152100Z AUTO 28003KT CAVOK 19/16 Q1007
22:30
V
18 °C 10 km+ - 300° 300° 3 kt METAR LFPT 152030Z AUTO 30003KT CAVOK 18/16 Q1007
22:00
V
18 °C 10 km+ - Var Var 3 kt METAR LFPT 152000Z AUTO VRB03KT CAVOK 18/15 Q1006
21:30
V
19 °C 10 km+ - Var Var 2 kt METAR LFPT 151930Z AUTO VRB02KT 9999 ///CB 19/16 Q1006
21:00
V
21 °C 10 km+ - 220° 220° 3 kt METAR LFPT 151900Z AUTO 22003KT 9999 ///CB 21/17 Q1006
20:30
V
21 °C 10 km+ 5.400 ft 350° 350° 6 kt METAR LFPT 151830Z AUTO 35006KT 340V040 9999 FEW035/// BKN054/// BKN074/// ///CB 21/17 Q1005
20:00
V
24 °C 10 km+ - 240° 240° 6 kt METAR LFPT 151800Z AUTO 24006KT 9999 VCTS ///CB 24/15 Q1005
19:30
V
25 °C 10 km+ - 240° 240° 9 kt METAR LFPT 151730Z AUTO 24009KT 9999 VCTS ///CB 25/14 Q1005
19:00
V
26 °C 10 km+ - 180° 180° 4 kt METAR LFPT 151700Z AUTO 18004KT 130V230 9999 ///CB 26/13 Q1004
18:30
V
27 °C 10 km+ - 130° 130° 5 kt METAR LFPT 151630Z AUTO 13005KT 080V190 9999 ///CB 27/12 Q1004
18:00
V
28 °C 10 km+ - Var Var 4 kt METAR LFPT 151600Z AUTO VRB04KT CAVOK 28/11 Q1004
17:30
V
27 °C 10 km+ - 010° 010° 6 kt METAR LFPT 151530Z AUTO 01006KT 340V060 CAVOK 27/11 Q1004
17:00
V
27 °C 10 km+ - Var Var 3 kt METAR LFPT 151500Z AUTO VRB03KT CAVOK 27/12 Q1004
16:30
V
27 °C 10 km+ - 020° 020° 3 kt METAR LFPT 151430Z AUTO 02003KT 330V130 CAVOK 27/12 Q1004
16:00
V
26 °C 10 km+ - 310° 310° 4 kt METAR LFPT 151400Z AUTO 31004KT 230V020 CAVOK 26/13 Q1004
15:30
V
27 °C 10 km+ - 220° 220° 3 kt METAR LFPT 151330Z AUTO 22003KT 140V300 9999 FEW047 27/14 Q1005
15:00
V
26 °C 10 km+ - 200° 200° 6 kt METAR LFPT 151300Z AUTO 20006KT 160V270 CAVOK 26/15 Q1005
14:30
V
24 °C 10 km+ - Var Var 2 kt METAR LFPT 151230Z AUTO VRB02KT 9999 FEW046 24/13 Q1005
14:00
V
25 °C 10 km+ 4.300 ft Var Var 2 kt METAR LFPT 151200Z AUTO VRB02KT 9999 BKN043 25/14 Q1005
13:30
V
24 °C 10 km+ 5.200 ft 270° 270° 5 kt METAR LFPT 151130Z AUTO 27005KT 190V360 9999 FEW039 SCT045 BKN052 24/15 Q1005
13:00
V
23 °C 10 km+ 3.700 ft 210° 210° 3 kt METAR LFPT 151100Z AUTO 21003KT 180V250 9999 BKN037 BKN045 23/14 Q1005
12:30
V
23 °C 10 km+ - 160° 160° 4 kt METAR LFPT 151030Z AUTO 16004KT 100V210 9999 FEW035 SCT042 23/14 Q1005
12:00
V
23 °C 10 km+ - 120° 120° 5 kt METAR LFPT 151000Z AUTO 12005KT 030V180 9999 SCT031 23/15 Q1005
11:30
V
23 °C 10 km+ - 130° 130° 4 kt METAR LFPT 150930Z AUTO 13004KT 020V190 9999 FEW020 23/15 Q1005
11:00
M
21 °C 10 km+ 1.900 ft 250° 250° 4 kt METAR LFPT 150900Z AUTO 25004KT 210V300 9999 BKN019 BKN025 21/17 Q1005
10:30
V
22 °C 10 km+ - 140° 140° 3 kt METAR LFPT 150830Z AUTO 14003KT 110V210 9999 FEW019 22/17 Q1005
10:00
V
21 °C 10 km+ - Var Var 1 kt METAR LFPT 150800Z AUTO VRB01KT CAVOK 21/17 Q1005
09:30
V
20 °C 10 km+ - Var Var 1 kt METAR LFPT 150730Z AUTO VRB01KT CAVOK 20/17 Q1004
09:00
V
19 °C 10 km+ - Var Var 3 kt METAR LFPT 150700Z AUTO VRB03KT CAVOK 19/17 Q1005
08:30
V
18 °C 9 km - Var Var 1 kt METAR LFPT 150630Z AUTO VRB01KT 9000 NSC 18/17 Q1005
08:00
I
17 °C 4,8 km - 090° 090° 3 kt METAR LFPT 150600Z AUTO 09003KT 4800 BR NSC 17/17 Q1005
07:30
L
15 °C 2,4 km - 090° 090° 3 kt METAR LFPT 150530Z AUTO 09003KT 2400 R05/1200U BCFG VV/// 15/15 Q1005
07:00
L
14 °C 450 m - 060° 060° 2 kt METAR LFPT 150500Z AUTO 06002KT 0550 0450 R05/0375D FG VV/// 14/13 Q1005
06:30
L
14 °C 500 m - 140° 140° 2 kt METAR LFPT 150430Z AUTO 14002KT 0500 R05/0600N FG VV/// 14/14 Q1005
06:00
L
15 °C 250 m - 200° 200° 2 kt METAR LFPT 150400Z AUTO 20002KT 0250 R05/0450U FG VV/// 15/14 Q1005
05:30
I
14 °C 4,9 km - Var 000° 0 kt METAR LFPT 150330Z AUTO 00000KT 4900 BR FEW001 14/14 Q1005
05:00
I
15 °C 4,6 km - 020° 020° 2 kt METAR LFPT 150300Z AUTO 02002KT 4600 BR NSC 15/15 Q1005
04:30
M
16 °C 6 km - Var 000° 0 kt METAR LFPT 150230Z AUTO 00000KT 6000 NSC 16/15 Q1005
04:00
V
17 °C 10 km+ - Var 000° 0 kt METAR LFPT 150200Z AUTO 00000KT CAVOK 17/16 Q1006
03:30
V
17 °C 10 km+ - Var 000° 0 kt METAR LFPT 150130Z AUTO 00000KT CAVOK 17/16 Q1006
03:00
V
17 °C 10 km+ - Var 000° 0 kt METAR LFPT 150100Z AUTO 00000KT CAVOK 17/16 Q1006
02:30
V
17 °C 10 km+ - 260° 260° 3 kt METAR LFPT 150030Z AUTO 26003KT CAVOK 17/16 Q1006
02:00
V
18 °C 8 km - 200° 200° 2 kt METAR LFPT 150000Z AUTO 20002KT 8000 NSC 18/17 Q1006
01:30
V
17 °C 10 km+ - Var Var 2 kt METAR LFPT 142330Z AUTO VRB02KT CAVOK 17/16 Q1006
01:00
V
18 °C 10 km+ - Var 000° 0 kt METAR LFPT 142300Z AUTO 00000KT CAVOK 18/16 Q1006
00:30
V
18 °C 10 km+ - 160° 160° 3 kt METAR LFPT 142230Z AUTO 16003KT 140V300 9999 ///CB 18/16 Q1006
00:00
V
18 °C 10 km+ 12.000 ft 180° 180° 2 kt METAR LFPT 142200Z AUTO 18002KT 9999 FEW035/// OVC120/// ///CB 18/17 Q1006
Données plus anciennes

Nous et des tiers suivons ton comportement sur Internet sur notre site Web à l'aide de cookies. Si tu continues, nous supposons que tu acceptes notre politique en matière de cookies. Apprendre plus